This is the latest recevied weather packets stored in our database for station/object IZ1BLA-10. If no packets are shown the sender has not sent any weather packets the latest 10 day(s).
| Time | Temp. | Humidity | Pressure | Rain* | Wind** | Luminosity | Snow |
|---|---|---|---|---|---|---|---|
| 1777927753 | 15.56° C | 68% | 1017 hPa | - | - | - | - |
| 1777927154 | 16.11° C | 66% | 1016.7 hPa | - | - | - | - |
| 1777926553 | 16.11° C | 68% | 1016.8 hPa | - | - | - | - |
| 1777925953 | 15° C | 74% | 1016.9 hPa | - | - | - | - |
| 1777925353 | 15° C | 73% | 1017 hPa | - | - | - | - |
| 1777924753 | 16.67° C | 65% | 1016.5 hPa | - | - | - | - |
| 1777924153 | 15.56° C | 71% | 1016.8 hPa | - | - | - | - |
| 1777923554 | 16.67° C | 66% | 1016.4 hPa | - | - | - | - |
| 1777922953 | 15.56° C | 75% | 1016.6 hPa | - | - | - | - |
| 1777922354 | 16.11° C | 72% | 1016.7 hPa | - | - | - | - |
| 1777921753 | 16.67° C | 69% | 1016.2 hPa | - | - | - | - |
| 1777921153 | 16.11° C | 72% | 1016.3 hPa | - | - | - | - |
| 1777919954 | 15.56° C | 70% | 1016.1 hPa | - | - | - | - |
| 1777919354 | 15.56° C | 74% | 1016.4 hPa | - | - | - | - |
| 1777918153 | 14.44° C | 76% | 1016.5 hPa | - | - | - | - |
| 1777917553 | 14.44° C | 74% | 1016.6 hPa | - | - | - | - |
| 1777916954 | 16.11° C | 68% | 1015.9 hPa | - | - | - | - |
| 1777916354 | 17.22° C | 61% | 1015.6 hPa | - | - | - | - |
| 1777915753 | 18.33° C | 58% | 1015.3 hPa | - | - | - | - |
| 1777915153 | 18.33° C | 55% | 1015.2 hPa | - | - | - | - |
| 1777914553 | 17.22° C | 56% | 1015.6 hPa | - | - | - | - |
| 1777913953 | 17.78° C | 55% | 1015.5 hPa | - | - | - | - |
| 1777913353 | 17.22° C | 54% | 1015.6 hPa | - | - | - | - |
| 1777912753 | 17.22° C | 53% | 1015.8 hPa | - | - | - | - |
| 1777912154 | 18.33° C | 49% | 1015.3 hPa | - | - | - | - |
* Rain since midnight (hover to see other rain measurements)
** Current wind speed in m/s (hover to see current wind gust speed)